Impacts METAR Board
IDs:

KDFW - Dallas-Ft Worth Intl, TX, US

Updated at: 0900 UTC 25 May 2020
Potential Impact None Slight Moderate High
Time 24/21Z 24/22Z 24/23Z 25/00Z 25/01Z 25/02Z 25/03Z 25/04Z 25/05Z 25/06Z 25/07Z 25/08Z 25/09Z
Temp70 72 74 71 71 68 68 67 68 68 67 67 67
Dewpt66 66 65 66 65 64 64 64 65 65 64 65 65
Altim29.80 29.77 29.80 29.79 29.79 29.77 29.72 29.79 29.80 29.80 29.79 29.78 29.76
VIS10 10 10 10 10 10 10 10 10 10 10 10 10
CIG100 230 250 190 210 -- 250 250 13 60 250 15 21
CoverBKNBKNBKNOVCOVCSCTBKNBKNOVCOVCOVCOVCOVC
FltCatVFRVFRVFRVFRVFRVFRVFRVFRMVFRVFRVFRMVFRMVFR
WX-TSRA BR------------------------
WDir1501601201101001201200170190170150140
WSpd14 9 13 14 11 13 14 0 10 9 6 3 5
WGst25 -- 22 21 -- -- -- -- -- -- -- -- --
Raw hourly METARs
KDFW 242053Z COR 15014G25KT 10SM -TSRA BR FEW042 SCT050CB BKN100 BKN190 OVC250 21/19 A2980 RMK AO2 PK WND 16036/1955 LTG DSNT ALQDS RAB19 TSB10 SLP083 OCNL LTGICCG N-NE TS N-NE MOV N CBMAM OHD P0017 60017 T02110189 55010 $
KDFW 242153Z 16009KT 10SM FEW050 FEW100 SCT170 BKN230 22/19 A2977 RMK AO2 RAE11 TSE11 SLP075 TS MOVD N CB DSNT SW-NW MOV N P0000 T02220189 $
KDFW 242253Z 12013G22KT 10SM FEW050 SCT110 SCT170 BKN250 23/18 A2980 RMK AO2 SLP084 CB DSNT SW-NW MOV N T02330183 $
KDFW 242353Z 11014G21KT 10SM FEW050 FEW110 BKN190 OVC250 22/19 A2979 RMK AO2 SLP081 60017 T02170189 10322 20211 56002 $
KDFW 250053Z 10011KT 10SM FEW040 FEW110 BKN210 OVC250 22/18 A2979 RMK AO2 SLP081 T02170183 $
KDFW 250153Z 12013KT 10SM FEW015 FEW040 FEW110 SCT210 BKN250 20/18 A2977 RMK AO2 SLP074 T02000178 $
KDFW 250253Z 12014KT 10SM FEW012 FEW210 BKN250 20/18 A2972 RMK AO2 SLP056 OCNL LTGIC DSNT SW CB DSNT SW MOV NE T02000178 58023 $
KDFW 250353Z 00000KT 10SM FEW012 FEW210 BKN250 19/18 A2979 RMK AO2 SLP080 OCNL LTGIC DSNT SW-W CB DSNT SW-W MOV NE T01940178 $
KDFW 250453Z 17010KT 10SM OVC013 20/18 A2980 RMK AO2 SLP082 T02000183 $
KDFW 250553Z 19009KT 10SM FEW012 OVC060 20/18 A2980 RMK AO2 SLP083 T02000183 10222 20189 403220189 51027 $
KDFW 250653Z 17006KT 10SM FEW013 SCT042 OVC250 19/18 A2979 RMK AO2 SLP078 T01940178 $
KDFW 250753Z 15003KT 10SM BKN015 BKN028 OVC240 19/18 A2978 RMK AO2 SLP075 T01940183 $
KDFW 250853Z 14005KT 10SM SCT014 BKN021 OVC240 19/18 A2976 RMK AO2 SLP070 T01940183 58015 $



Page loaded:  09:22 UTC  |   02:22 AM Pacific  |   03:22 AM Mountain  |   04:22 AM Central  |   05:22 AM Eastern

 

ADVISORIES

FORECASTS

FORECASTS

OBSERVATIONS

USER TOOLS

ABOUT US